地図

経路データ

SID SEASON NUMBER BASIN SUBBASIN NAME ISO_TIME NATURE LAT LON WMO_WIND WMO_PRES WMO_AGENCY TRACK_TYPE DIST2LAND LANDFALL IFLAG USA_AGENCY USA_ATCF_ID USA_LAT USA_LON USA_RECORD USA_STATUS USA_WIND USA_PRES USA_SSHS USA_R34_NE USA_R34_SE USA_R34_SW USA_R34_NW USA_R50_NE USA_R50_SE USA_R50_SW USA_R50_NW USA_R64_NE USA_R64_SE USA_R64_SW USA_R64_NW USA_POCI USA_ROCI USA_RMW USA_EYE TOKYO_LAT TOKYO_LON TOKYO_GRADE TOKYO_WIND TOKYO_PRES TOKYO_R50_DIR TOKYO_R50_LONG TOKYO_R50_SHORT TOKYO_R30_DIR TOKYO_R30_LONG TOKYO_R30_SHORT TOKYO_LAND CMA_LAT CMA_LON CMA_CAT CMA_WIND CMA_PRES HKO_LAT HKO_LON HKO_CAT HKO_WIND HKO_PRES NEWDELHI_LAT NEWDELHI_LON NEWDELHI_GRADE NEWDELHI_WIND NEWDELHI_PRES NEWDELHI_CI NEWDELHI_DP NEWDELHI_POCI REUNION_LAT REUNION_LON REUNION_TYPE REUNION_WIND REUNION_PRES REUNION_TNUM REUNION_CI REUNION_RMW REUNION_R34_NE REUNION_R34_SE REUNION_R34_SW REUNION_R34_NW REUNION_R50_NE REUNION_R50_SE REUNION_R50_SW REUNION_R50_NW REUNION_R64_NE REUNION_R64_SE REUNION_R64_SW REUNION_R64_NW BOM_LAT BOM_LON BOM_TYPE BOM_WIND BOM_PRES BOM_TNUM BOM_CI BOM_RMW BOM_R34_NE BOM_R34_SE BOM_R34_SW BOM_R34_NW BOM_R50_NE BOM_R50_SE BOM_R50_SW BOM_R50_NW BOM_R64_NE BOM_R64_SE BOM_R64_SW BOM_R64_NW BOM_ROCI BOM_POCI BOM_EYE BOM_POS_METHOD BOM_PRES_METHOD NADI_LAT NADI_LON NADI_CAT NADI_WIND NADI_PRES WELLINGTON_LAT WELLINGTON_LON WELLINGTON_WIND WELLINGTON_PRES DS824_LAT DS824_LON DS824_STAGE DS824_WIND DS824_PRES TD9636_LAT TD9636_LON TD9636_STAGE TD9636_WIND TD9636_PRES TD9635_LAT TD9635_LON TD9635_WIND TD9635_PRES TD9635_ROCI NEUMANN_LAT NEUMANN_LON NEUMANN_CLASS NEUMANN_WIND NEUMANN_PRES MLC_LAT MLC_LON MLC_CLASS MLC_WIND MLC_PRES USA_GUST BOM_GUST BOM_GUST_PER REUNION_GUST REUNION_GUST_PER USA_SEAHGT USA_SEARAD_NE USA_SEARAD_SE USA_SEARAD_SW USA_SEARAD_NW STORM_SPEED STORM_DIR
1971241N24287 1971 102 NA NA NOT_NAMED 1971-08-28 12:00:00 TS 24.0000 -73.0000 20 hurdat_atl main 313 313 O_____________ hurdat_atl AL101971 24.0000 -73.0000 TD 20 -1 10 280
1971241N24287 1971 102 NA NA NOT_NAMED 1971-08-28 15:00:00 TS 24.0904 -73.5524 main 326 326 P_____________ AL101971 24.0904 -73.5524 TD 22 -1 10 281
1971241N24287 1971 102 NA NA NOT_NAMED 1971-08-28 18:00:00 TS 24.2000 -74.1000 25 hurdat_atl main 347 314 O_____________ hurdat_atl AL101971 24.2000 -74.1000 TD 25 -1 10 284
1971241N24287 1971 102 NA NA NOT_NAMED 1971-08-28 21:00:00 TS 24.3422 -74.6426 main 314 252 P_____________ AL101971 24.3422 -74.6426 TD 25 -1 10 287
1971241N24287 1971 102 NA NA NOT_NAMED 1971-08-29 00:00:00 TS 24.5000 -75.2000 25 hurdat_atl main 252 192 O_____________ hurdat_atl AL101971 24.5000 -75.2000 TD 25 -1 11 287
1971241N24287 1971 102 NA NA NOT_NAMED 1971-08-29 03:00:00 TS 24.6574 -75.8000 main 193 135 P_____________ AL101971 24.6574 -75.8000 TD 25 -1 11 285
1971241N24287 1971 102 NA NA NOT_NAMED 1971-08-29 06:00:00 TS 24.8000 -76.4000 25 hurdat_atl main 135 92 O_____________ hurdat_atl AL101971 24.8000 -76.4000 TD 25 -1 11 283
1971241N24287 1971 102 NA NA NOT_NAMED 1971-08-29 09:00:00 TS 24.9072 -76.9577 main 83 41 P_____________ AL101971 24.9072 -76.9577 TD 25 -1 10 281
1971241N24287 1971 102 NA NA NOT_NAMED 1971-08-29 12:00:00 TS 25.0000 -77.5000 25 hurdat_atl main 41 0 O_____________ hurdat_atl AL101971 25.0000 -77.5000 TD 25 -1 10 281
1971241N24287 1971 102 NA NA NOT_NAMED 1971-08-29 15:00:00 TS 25.0923 -78.0502 main 0 0 P_____________ AL101971 25.0923 -78.0502 TD 25 -1 10 281
1971241N24287 1971 102 NA NA NOT_NAMED 1971-08-29 18:00:00 TS 25.2000 -78.6000 25 hurdat_atl main 51 51 O_____________ hurdat_atl AL101971 25.2000 -78.6000 TD 25 -1 10 284
1971241N24287 1971 102 NA NA NOT_NAMED 1971-08-29 21:00:00 TS 25.3422 -79.1426 main 98 52 P_____________ AL101971 25.3422 -79.1426 TD 25 -1 10 287
1971241N24287 1971 102 NA NA NOT_NAMED 1971-08-30 00:00:00 TS 25.5000 -79.7000 25 hurdat_atl main 52 0 O_____________ hurdat_atl AL101971 25.5000 -79.7000 TD 25 -1 11 287
1971241N24287 1971 102 NA NA NOT_NAMED 1971-08-30 03:00:00 TS 25.6574 -80.3000 main 0 0 P_____________ AL101971 25.6574 -80.3000 TD 25 -1 11 286
1971241N24287 1971 102 NA NA NOT_NAMED 1971-08-30 06:00:00 TS 25.8000 -80.9000 25 hurdat_atl main 0 0 O_____________ hurdat_atl AL101971 25.8000 -80.9000 TD 25 -1 10 284
1971241N24287 1971 102 NA GM NOT_NAMED 1971-08-30 09:00:00 TS 25.9068 -81.4278 main 0 0 P_____________ AL101971 25.9068 -81.4278 TD 22 -1 10 281
1971241N24287 1971 102 NA GM NOT_NAMED 1971-08-30 12:00:00 TS 26.0000 -82.0000 20 hurdat_atl main 22 22 O_____________ hurdat_atl AL101971 26.0000 -82.0000 TD 20 -1 12 279
1971241N24287 1971 102 NA GM NOT_NAMED 1971-08-30 15:00:00 TS 26.0925 -82.7202 main 81 81 P_____________ AL101971 26.0925 -82.7202 TD 20 -1 14 278
1971241N24287 1971 102 NA GM NOT_NAMED 1971-08-30 18:00:00 TS 26.2000 -83.5000 20 hurdat_atl main 136 136 O_____________ hurdat_atl AL101971 26.2000 -83.5000 TD 20 -1 14 280
1971241N24287 1971 102 NA GM NOT_NAMED 1971-08-30 21:00:00 TS 26.3421 -84.2501 main 202 196 P_____________ AL101971 26.3421 -84.2501 TD 22 -1 14 283
1971241N24287 1971 102 NA GM NOT_NAMED 1971-08-31 00:00:00 TS 26.5000 -85.0000 25 hurdat_atl main 253 253 O_____________ hurdat_atl AL101971 26.5000 -85.0000 TD 25 -1 14 283
1971241N24287 1971 102 NA GM NOT_NAMED 1971-08-31 03:00:00 TS 26.6571 -85.7500 main 316 316 P_____________ AL101971 26.6571 -85.7500 TD 25 -1 14 283
1971241N24287 1971 102 NA GM NOT_NAMED 1971-08-31 06:00:00 TS 26.8000 -86.5000 25 hurdat_atl main 341 293 O_____________ hurdat_atl AL101971 26.8000 -86.5000 TD 25 -1 14 279
1971241N24287 1971 102 NA GM NOT_NAMED 1971-08-31 09:00:00 TS 26.8704 -87.3106 main 293 247 P_____________ AL101971 26.8704 -87.3106 TD 25 -1 14 278
1971241N24287 1971 102 NA GM NOT_NAMED 1971-08-31 12:00:00 TS 27.0000 -88.0000 25 hurdat_atl main 247 201 O_____________ hurdat_atl AL101971 27.0000 -88.0000 TD 25 -1 11 294
1971241N24287 1971 102 NA GM NOT_NAMED 1971-08-31 15:00:00 TS 27.3042 -88.4028 main 201 150 P_____________ AL101971 27.3042 -88.4028 TD 25 -1 9 318
1971241N24287 1971 102 NA GM NOT_NAMED 1971-08-31 18:00:00 TS 27.7000 -88.7000 25 hurdat_atl main 150 100 O_____________ hurdat_atl AL101971 27.7000 -88.7000 TD 25 -1 10 322
1971241N24287 1971 102 NA GM NOT_NAMED 1971-08-31 21:00:00 TS 28.1000 -89.1000 main 100 67 P_____________ AL101971 28.1000 -89.1000 TD 25 -1 11 319
1971241N24287 1971 102 NA GM NOT_NAMED 1971-09-01 00:00:00 TS 28.5000 -89.5000 25 hurdat_atl main 67 44 O_____________ hurdat_atl AL101971 28.5000 -89.5000 TD 25 -1 10 319
1971241N24287 1971 102 NA GM NOT_NAMED 1971-09-01 03:00:00 TS 28.8498 -89.8505 main 38 0 P_____________ AL101971 28.8498 -89.8505 TD 25 -1 9 319
1971241N24287 1971 102 NA NA NOT_NAMED 1971-09-01 06:00:00 TS 29.2000 -90.2000 25 hurdat_atl main 0 0 O_____________ hurdat_atl AL101971 29.2000 -90.2000 TD 25 -1 10 319
1971241N24287 1971 102 NA NA NOT_NAMED 1971-09-01 09:00:00 TS 29.5878 -90.5866 main 0 0 P_____________ AL101971 29.5878 -90.5866 TD -1 11 319
1971241N24287 1971 102 NA NA NOT_NAMED 1971-09-01 12:00:00 TS 30.0000 -91.0000 hurdat_atl main 0 O_____________ hurdat_atl AL101971 30.0000 -91.0000 TD -1 11 319

IBTrACS Databaseについて

本データベースは、米国NOAAが公開する1842年以降の世界の熱帯低気圧のベストトラックデータアーカイブInternational Best Track Archive for Climate Stewardship (IBTrACS)を、ウェブで閲覧しやすい形式に変換したものです。

最終更新日:2021-12-03